sensor_id;sensor_type;location;lat;lon;timestamp;temperature;humidity
62339;DHT22;48368;53.406;6.214;2023-03-25T00:02:23;9.30;99.90
62339;DHT22;48368;53.406;6.214;2023-03-25T00:04:50;9.30;99.90
62339;DHT22;48368;53.406;6.214;2023-03-25T00:07:17;9.30;99.90
62339;DHT22;48368;53.406;6.214;2023-03-25T00:09:46;9.20;99.90
62339;DHT22;48368;53.406;6.214;2023-03-25T00:12:13;9.30;99.90
62339;DHT22;48368;53.406;6.214;2023-03-25T00:14:39;9.30;99.90
62339;DHT22;48368;53.406;6.214;2023-03-25T00:17:07;9.30;99.90
62339;DHT22;48368;53.406;6.214;2023-03-25T00:19:34;9.30;99.90
62339;DHT22;48368;53.406;6.214;2023-03-25T00:22:01;9.30;99.90
62339;DHT22;48368;53.406;6.214;2023-03-25T00:24:26;9.30;99.90
62339;DHT22;48368;53.406;6.214;2023-03-25T00:26:52;9.30;99.90
62339;DHT22;48368;53.406;6.214;2023-03-25T00:29:19;9.30;99.90
62339;DHT22;48368;53.406;6.214;2023-03-25T00:31:45;9.30;99.90
62339;DHT22;48368;53.406;6.214;2023-03-25T00:34:11;9.30;99.90
62339;DHT22;48368;53.406;6.214;2023-03-25T00:36:40;9.20;99.90
62339;DHT22;48368;53.406;6.214;2023-03-25T00:39:08;9.20;99.90
62339;DHT22;48368;53.406;6.214;2023-03-25T00:41:34;9.20;99.90
62339;DHT22;48368;53.406;6.214;2023-03-25T00:44:02;9.20;99.90
62339;DHT22;48368;53.406;6.214;2023-03-25T00:46:30;9.20;99.90
62339;DHT22;48368;53.406;6.214;2023-03-25T00:48:57;9.20;99.90
62339;DHT22;48368;53.406;6.214;2023-03-25T00:51:24;9.20;99.90
62339;DHT22;48368;53.406;6.214;2023-03-25T00:53:52;9.20;99.90
62339;DHT22;48368;53.406;6.214;2023-03-25T00:56:19;9.20;99.90
62339;DHT22;48368;53.406;6.214;2023-03-25T00:58:44;9.20;99.90
62339;DHT22;48368;53.406;6.214;2023-03-25T01:01:16;9.20;99.90
62339;DHT22;48368;53.406;6.214;2023-03-25T01:03:43;9.20;99.90
62339;DHT22;48368;53.406;6.214;2023-03-25T01:06:13;9.30;99.90
62339;DHT22;48368;53.406;6.214;2023-03-25T01:08:41;9.20;99.90
62339;DHT22;48368;53.406;6.214;2023-03-25T01:11:20;9.20;99.90
62339;DHT22;48368;53.406;6.214;2023-03-25T01:13:46;9.30;99.90
62339;DHT22;48368;53.406;6.214;2023-03-25T01:16:12;9.20;99.90
62339;DHT22;48368;53.406;6.214;2023-03-25T01:18:37;9.20;99.90
62339;DHT22;48368;53.406;6.214;2023-03-25T01:21:04;9.10;99.90
62339;DHT22;48368;53.406;6.214;2023-03-25T01:23:31;9.00;99.90
62339;DHT22;48368;53.406;6.214;2023-03-25T01:25:56;8.90;99.90
62339;DHT22;48368;53.406;6.214;2023-03-25T01:28:22;8.90;99.90
62339;DHT22;48368;53.406;6.214;2023-03-25T01:30:48;8.90;99.90
62339;DHT22;48368;53.406;6.214;2023-03-25T01:33:14;8.90;99.90
62339;DHT22;48368;53.406;6.214;2023-03-25T01:35:41;8.90;99.90
62339;DHT22;48368;53.406;6.214;2023-03-25T01:38:06;8.90;99.90
62339;DHT22;48368;53.406;6.214;2023-03-25T01:40:32;8.80;99.90
62339;DHT22;48368;53.406;6.214;2023-03-25T01:42:58;8.80;99.90
62339;DHT22;48368;53.406;6.214;2023-03-25T01:45:30;8.80;99.90
62339;DHT22;48368;53.406;6.214;2023-03-25T01:48:08;8.80;99.90
62339;DHT22;48368;53.406;6.214;2023-03-25T01:50:37;8.80;99.90
62339;DHT22;48368;53.406;6.214;2023-03-25T01:53:06;8.90;99.90
62339;DHT22;48368;53.406;6.214;2023-03-25T01:55:33;8.90;99.90
62339;DHT22;48368;53.406;6.214;2023-03-25T01:58:02;8.80;99.90
62339;DHT22;48368;53.406;6.214;2023-03-25T02:00:29;8.80;99.90
62339;DHT22;48368;53.406;6.214;2023-03-25T02:02:57;8.80;99.90
62339;DHT22;48368;53.406;6.214;2023-03-25T02:05:32;8.90;99.90
62339;DHT22;48368;53.406;6.214;2023-03-25T02:08:03;8.90;99.90
62339;DHT22;48368;53.406;6.214;2023-03-25T02:10:30;8.90;99.90
62339;DHT22;48368;53.406;6.214;2023-03-25T02:12:56;8.80;99.90
62339;DHT22;48368;53.406;6.214;2023-03-25T02:15:23;8.90;99.90
62339;DHT22;48368;53.406;6.214;2023-03-25T02:28:57;8.90;99.90
62339;DHT22;48368;53.406;6.214;2023-03-25T02:34:32;8.90;99.90
62339;DHT22;48368;53.406;6.214;2023-03-25T02:42:32;8.90;99.90
62339;DHT22;48368;53.406;6.214;2023-03-25T02:45:02;9.00;99.90
62339;DHT22;48368;53.406;6.214;2023-03-25T02:47:34;8.90;99.90
62339;DHT22;48368;53.406;6.214;2023-03-25T02:50:17;8.90;99.90
62339;DHT22;48368;53.406;6.214;2023-03-25T02:52:53;8.90;99.90
62339;DHT22;48368;53.406;6.214;2023-03-25T02:55:21;8.90;99.90
62339;DHT22;48368;53.406;6.214;2023-03-25T02:57:51;8.80;99.90
62339;DHT22;48368;53.406;6.214;2023-03-25T03:00:23;8.90;99.90
62339;DHT22;48368;53.406;6.214;2023-03-25T03:02:56;8.90;99.90
62339;DHT22;48368;53.406;6.214;2023-03-25T03:05:30;8.90;99.90
62339;DHT22;48368;53.406;6.214;2023-03-25T03:16:48;8.90;99.90
62339;DHT22;48368;53.406;6.214;2023-03-25T03:22:12;8.80;99.90
62339;DHT22;48368;53.406;6.214;2023-03-25T03:24:44;8.80;99.90
62339;DHT22;48368;53.406;6.214;2023-03-25T03:29:58;8.80;99.90
62339;DHT22;48368;53.406;6.214;2023-03-25T03:32:35;8.80;99.90
62339;DHT22;48368;53.406;6.214;2023-03-25T03:35:16;8.90;99.90
62339;DHT22;48368;53.406;6.214;2023-03-25T03:37:46;8.80;99.90
62339;DHT22;48368;53.406;6.214;2023-03-25T03:40:19;8.80;99.90
62339;DHT22;48368;53.406;6.214;2023-03-25T03:42:54;8.80;99.90
62339;DHT22;48368;53.406;6.214;2023-03-25T03:45:42;8.80;99.90
62339;DHT22;48368;53.406;6.214;2023-03-25T03:48:17;8.80;99.90
62339;DHT22;48368;53.406;6.214;2023-03-25T03:50:52;8.70;99.90
62339;DHT22;48368;53.406;6.214;2023-03-25T03:53:29;8.80;99.90
62339;DHT22;48368;53.406;6.214;2023-03-25T03:56:10;8.80;99.90
62339;DHT22;48368;53.406;6.214;2023-03-25T03:58:40;8.80;99.90
62339;DHT22;48368;53.406;6.214;2023-03-25T04:01:34;8.80;99.90
62339;DHT22;48368;53.406;6.214;2023-03-25T04:04:21;8.80;99.90
62339;DHT22;48368;53.406;6.214;2023-03-25T04:06:57;8.70;99.90
62339;DHT22;48368;53.406;6.214;2023-03-25T04:12:14;8.80;99.90
62339;DHT22;48368;53.406;6.214;2023-03-25T04:14:41;8.80;99.90
62339;DHT22;48368;53.406;6.214;2023-03-25T04:17:06;8.80;99.90
62339;DHT22;48368;53.406;6.214;2023-03-25T04:19:32;8.80;99.90
62339;DHT22;48368;53.406;6.214;2023-03-25T04:22:01;8.80;99.90
62339;DHT22;48368;53.406;6.214;2023-03-25T04:24:28;8.80;99.90
62339;DHT22;48368;53.406;6.214;2023-03-25T04:27:00;8.80;99.90
62339;DHT22;48368;53.406;6.214;2023-03-25T04:29:32;8.80;99.90
62339;DHT22;48368;53.406;6.214;2023-03-25T04:32:01;8.90;99.90
62339;DHT22;48368;53.406;6.214;2023-03-25T04:34:27;8.90;99.90
62339;DHT22;48368;53.406;6.214;2023-03-25T04:36:54;8.90;99.90
62339;DHT22;48368;53.406;6.214;2023-03-25T04:39:20;8.80;99.90
62339;DHT22;48368;53.406;6.214;2023-03-25T04:41:49;8.90;99.90
62339;DHT22;48368;53.406;6.214;2023-03-25T04:44:16;8.90;99.90
62339;DHT22;48368;53.406;6.214;2023-03-25T04:46:42;8.90;99.90
62339;DHT22;48368;53.406;6.214;2023-03-25T04:49:17;8.80;99.90
62339;DHT22;48368;53.406;6.214;2023-03-25T04:51:43;8.90;99.90
62339;DHT22;48368;53.406;6.214;2023-03-25T04:54:10;8.80;99.90
62339;DHT22;48368;53.406;6.214;2023-03-25T04:56:36;8.80;99.90
62339;DHT22;48368;53.406;6.214;2023-03-25T04:59:02;8.80;99.90
62339;DHT22;48368;53.406;6.214;2023-03-25T05:01:29;8.70;99.90
62339;DHT22;48368;53.406;6.214;2023-03-25T05:04:00;8.80;99.90
62339;DHT22;48368;53.406;6.214;2023-03-25T05:06:30;8.80;99.90
62339;DHT22;48368;53.406;6.214;2023-03-25T05:08:57;8.80;99.90
62339;DHT22;48368;53.406;6.214;2023-03-25T05:11:24;8.80;99.90
62339;DHT22;48368;53.406;6.214;2023-03-25T05:13:49;8.70;99.90
62339;DHT22;48368;53.406;6.214;2023-03-25T05:16:15;8.80;99.90
62339;DHT22;48368;53.406;6.214;2023-03-25T05:18:41;8.70;99.90
62339;DHT22;48368;53.406;6.214;2023-03-25T05:21:06;8.80;99.90
62339;DHT22;48368;53.406;6.214;2023-03-25T05:23:32;8.70;99.90
62339;DHT22;48368;53.406;6.214;2023-03-25T05:25:58;8.80;99.90
62339;DHT22;48368;53.406;6.214;2023-03-25T05:28:24;8.70;99.90
62339;DHT22;48368;53.406;6.214;2023-03-25T05:30:49;8.80;99.90
62339;DHT22;48368;53.406;6.214;2023-03-25T05:33:16;8.80;99.90
62339;DHT22;48368;53.406;6.214;2023-03-25T05:35:44;8.80;99.90
62339;DHT22;48368;53.406;6.214;2023-03-25T05:38:12;8.80;99.90
62339;DHT22;48368;53.406;6.214;2023-03-25T05:40:43;8.70;99.90
62339;DHT22;48368;53.406;6.214;2023-03-25T05:43:10;8.70;99.90
62339;DHT22;48368;53.406;6.214;2023-03-25T05:45:38;8.70;99.90
62339;DHT22;48368;53.406;6.214;2023-03-25T05:48:04;8.70;99.90
62339;DHT22;48368;53.406;6.214;2023-03-25T05:50:30;8.70;99.90
62339;DHT22;48368;53.406;6.214;2023-03-25T05:52:56;8.70;99.90
62339;DHT22;48368;53.406;6.214;2023-03-25T05:55:22;8.70;99.90
62339;DHT22;48368;53.406;6.214;2023-03-25T05:57:48;8.70;99.90
62339;DHT22;48368;53.406;6.214;2023-03-25T06:00:16;8.70;99.90
62339;DHT22;48368;53.406;6.214;2023-03-25T06:02:44;8.70;99.90
62339;DHT22;48368;53.406;6.214;2023-03-25T06:05:11;8.70;99.90
62339;DHT22;48368;53.406;6.214;2023-03-25T06:07:41;8.70;99.90
62339;DHT22;48368;53.406;6.214;2023-03-25T06:10:12;8.70;99.90
62339;DHT22;48368;53.406;6.214;2023-03-25T06:12:41;8.70;99.90
62339;DHT22;48368;53.406;6.214;2023-03-25T06:15:09;8.70;99.90
62339;DHT22;48368;53.406;6.214;2023-03-25T06:17:35;8.70;99.90
62339;DHT22;48368;53.406;6.214;2023-03-25T06:20:10;8.70;99.90
62339;DHT22;48368;53.406;6.214;2023-03-25T06:22:42;8.70;99.90
62339;DHT22;48368;53.406;6.214;2023-03-25T06:25:10;8.80;99.90
62339;DHT22;48368;53.406;6.214;2023-03-25T06:27:36;8.70;99.90
62339;DHT22;48368;53.406;6.214;2023-03-25T06:30:09;8.80;99.90
62339;DHT22;48368;53.406;6.214;2023-03-25T06:32:36;8.80;99.90
62339;DHT22;48368;53.406;6.214;2023-03-25T06:35:06;8.80;99.90
62339;DHT22;48368;53.406;6.214;2023-03-25T06:37:33;8.80;99.90
62339;DHT22;48368;53.406;6.214;2023-03-25T06:39:59;8.80;99.90
62339;DHT22;48368;53.406;6.214;2023-03-25T06:42:28;8.80;99.90
62339;DHT22;48368;53.406;6.214;2023-03-25T06:44:54;8.90;99.90
62339;DHT22;48368;53.406;6.214;2023-03-25T06:47:20;8.90;99.90
62339;DHT22;48368;53.406;6.214;2023-03-25T06:49:46;8.90;99.90
62339;DHT22;48368;53.406;6.214;2023-03-25T06:52:12;9.00;99.90
62339;DHT22;48368;53.406;6.214;2023-03-25T06:54:38;9.00;99.90
62339;DHT22;48368;53.406;6.214;2023-03-25T06:57:05;9.00;99.90
62339;DHT22;48368;53.406;6.214;2023-03-25T06:59:31;8.90;99.90
62339;DHT22;48368;53.406;6.214;2023-03-25T07:01:57;9.00;99.90
62339;DHT22;48368;53.406;6.214;2023-03-25T07:04:22;9.00;99.90
62339;DHT22;48368;53.406;6.214;2023-03-25T07:06:48;9.10;99.90
62339;DHT22;48368;53.406;6.214;2023-03-25T07:09:14;9.20;99.90
62339;DHT22;48368;53.406;6.214;2023-03-25T07:11:40;9.20;99.90
62339;DHT22;48368;53.406;6.214;2023-03-25T07:14:06;9.20;99.90
62339;DHT22;48368;53.406;6.214;2023-03-25T07:16:32;9.20;99.90
62339;DHT22;48368;53.406;6.214;2023-03-25T07:18:57;9.10;99.90
62339;DHT22;48368;53.406;6.214;2023-03-25T07:21:24;9.10;99.90
62339;DHT22;48368;53.406;6.214;2023-03-25T07:23:50;9.10;99.90
62339;DHT22;48368;53.406;6.214;2023-03-25T07:26:15;9.00;99.90
62339;DHT22;48368;53.406;6.214;2023-03-25T07:28:41;9.00;99.90
62339;DHT22;48368;53.406;6.214;2023-03-25T07:31:12;9.00;99.90
62339;DHT22;48368;53.406;6.214;2023-03-25T07:33:38;9.00;99.90
62339;DHT22;48368;53.406;6.214;2023-03-25T07:36:05;9.00;99.90
62339;DHT22;48368;53.406;6.214;2023-03-25T07:38:35;9.00;99.90
62339;DHT22;48368;53.406;6.214;2023-03-25T07:41:09;9.00;99.90
62339;DHT22;48368;53.406;6.214;2023-03-25T07:43:36;9.10;99.90
62339;DHT22;48368;53.406;6.214;2023-03-25T07:46:02;9.20;99.90
62339;DHT22;48368;53.406;6.214;2023-03-25T07:48:27;9.20;99.90
62339;DHT22;48368;53.406;6.214;2023-03-25T07:50:53;9.20;99.90
62339;DHT22;48368;53.406;6.214;2023-03-25T07:53:19;9.30;99.90
62339;DHT22;48368;53.406;6.214;2023-03-25T07:55:44;9.30;99.90
62339;DHT22;48368;53.406;6.214;2023-03-25T07:58:11;9.30;99.90
62339;DHT22;48368;53.406;6.214;2023-03-25T08:00:37;9.30;99.90
62339;DHT22;48368;53.406;6.214;2023-03-25T08:03:03;9.30;99.90
62339;DHT22;48368;53.406;6.214;2023-03-25T08:05:29;9.40;99.90
62339;DHT22;48368;53.406;6.214;2023-03-25T08:07:56;9.30;99.90
62339;DHT22;48368;53.406;6.214;2023-03-25T08:10:25;9.40;99.90
62339;DHT22;48368;53.406;6.214;2023-03-25T08:12:54;9.40;99.90
62339;DHT22;48368;53.406;6.214;2023-03-25T08:15:19;9.40;99.90
62339;DHT22;48368;53.406;6.214;2023-03-25T08:17:49;9.30;99.90
62339;DHT22;48368;53.406;6.214;2023-03-25T08:20:17;9.30;99.90
62339;DHT22;48368;53.406;6.214;2023-03-25T08:22:49;9.20;99.90
62339;DHT22;48368;53.406;6.214;2023-03-25T08:25:15;9.30;99.90
62339;DHT22;48368;53.406;6.214;2023-03-25T08:27:41;9.30;99.90
62339;DHT22;48368;53.406;6.214;2023-03-25T08:30:08;9.20;99.90
62339;DHT22;48368;53.406;6.214;2023-03-25T08:32:35;9.20;99.90
62339;DHT22;48368;53.406;6.214;2023-03-25T08:35:03;9.10;99.90
62339;DHT22;48368;53.406;6.214;2023-03-25T08:37:30;9.20;99.90
62339;DHT22;48368;53.406;6.214;2023-03-25T08:40:00;9.20;99.90
62339;DHT22;48368;53.406;6.214;2023-03-25T08:42:26;9.20;99.90
62339;DHT22;48368;53.406;6.214;2023-03-25T08:44:52;9.30;99.90
62339;DHT22;48368;53.406;6.214;2023-03-25T08:47:17;9.40;99.90
62339;DHT22;48368;53.406;6.214;2023-03-25T08:49:43;9.50;99.90
62339;DHT22;48368;53.406;6.214;2023-03-25T08:52:09;9.60;99.90
62339;DHT22;48368;53.406;6.214;2023-03-25T08:54:34;9.70;99.90
62339;DHT22;48368;53.406;6.214;2023-03-25T08:57:01;9.80;99.90
62339;DHT22;48368;53.406;6.214;2023-03-25T08:59:26;9.80;99.90
62339;DHT22;48368;53.406;6.214;2023-03-25T09:01:52;9.90;99.90
62339;DHT22;48368;53.406;6.214;2023-03-25T09:04:18;9.90;99.90
62339;DHT22;48368;53.406;6.214;2023-03-25T09:06:44;9.90;99.90
62339;DHT22;48368;53.406;6.214;2023-03-25T09:09:10;9.90;99.90
62339;DHT22;48368;53.406;6.214;2023-03-25T09:11:36;9.90;99.90
62339;DHT22;48368;53.406;6.214;2023-03-25T09:14:03;10.00;99.90
62339;DHT22;48368;53.406;6.214;2023-03-25T09:16:32;10.00;99.90
62339;DHT22;48368;53.406;6.214;2023-03-25T09:18:59;10.10;99.90
62339;DHT22;48368;53.406;6.214;2023-03-25T09:21:24;10.10;99.90
62339;DHT22;48368;53.406;6.214;2023-03-25T09:23:51;10.10;99.90
62339;DHT22;48368;53.406;6.214;2023-03-25T09:26:17;10.30;99.90
62339;DHT22;48368;53.406;6.214;2023-03-25T09:28:42;10.30;99.90
62339;DHT22;48368;53.406;6.214;2023-03-25T09:31:08;10.30;99.90
62339;DHT22;48368;53.406;6.214;2023-03-25T09:33:35;10.30;99.90
62339;DHT22;48368;53.406;6.214;2023-03-25T09:36:01;10.20;99.90
62339;DHT22;48368;53.406;6.214;2023-03-25T09:38:28;10.30;99.90
62339;DHT22;48368;53.406;6.214;2023-03-25T09:40:54;10.20;99.90
62339;DHT22;48368;53.406;6.214;2023-03-25T09:46:01;10.20;99.90
62339;DHT22;48368;53.406;6.214;2023-03-25T09:48:35;10.20;99.90
62339;DHT22;48368;53.406;6.214;2023-03-25T09:51:04;10.20;99.90
62339;DHT22;48368;53.406;6.214;2023-03-25T09:53:42;10.30;99.90
62339;DHT22;48368;53.406;6.214;2023-03-25T09:56:17;10.40;99.90
62339;DHT22;48368;53.406;6.214;2023-03-25T09:58:52;10.40;99.90
62339;DHT22;48368;53.406;6.214;2023-03-25T10:01:59;10.30;99.90
62339;DHT22;48368;53.406;6.214;2023-03-25T10:10:44;10.50;99.90
62339;DHT22;48368;53.406;6.214;2023-03-25T10:13:42;10.50;99.90
62339;DHT22;48368;53.406;6.214;2023-03-25T10:21:55;10.60;99.90
62339;DHT22;48368;53.406;6.214;2023-03-25T10:24:27;10.70;99.90
62339;DHT22;48368;53.406;6.214;2023-03-25T10:27:03;10.80;99.90
62339;DHT22;48368;53.406;6.214;2023-03-25T10:31:59;11.00;99.90
62339;DHT22;48368;53.406;6.214;2023-03-25T10:34:36;11.00;99.90
62339;DHT22;48368;53.406;6.214;2023-03-25T10:37:08;11.00;99.90
62339;DHT22;48368;53.406;6.214;2023-03-25T10:39:41;11.10;99.90
62339;DHT22;48368;53.406;6.214;2023-03-25T10:42:25;11.10;99.90
62339;DHT22;48368;53.406;6.214;2023-03-25T10:44:53;11.10;99.90
62339;DHT22;48368;53.406;6.214;2023-03-25T10:47:23;11.00;99.90
62339;DHT22;48368;53.406;6.214;2023-03-25T10:49:51;11.10;99.90
62339;DHT22;48368;53.406;6.214;2023-03-25T10:52:18;11.10;99.90
62339;DHT22;48368;53.406;6.214;2023-03-25T10:54:48;11.10;99.90
62339;DHT22;48368;53.406;6.214;2023-03-25T10:57:25;11.10;99.90
62339;DHT22;48368;53.406;6.214;2023-03-25T11:00:15;11.10;99.90
62339;DHT22;48368;53.406;6.214;2023-03-25T11:02:42;11.10;99.90
62339;DHT22;48368;53.406;6.214;2023-03-25T11:05:08;11.00;99.90
62339;DHT22;48368;53.406;6.214;2023-03-25T11:07:38;11.10;99.90
62339;DHT22;48368;53.406;6.214;2023-03-25T11:12:39;11.20;99.90
62339;DHT22;48368;53.406;6.214;2023-03-25T11:15:24;11.30;99.90
62339;DHT22;48368;53.406;6.214;2023-03-25T11:18:02;11.30;99.90
62339;DHT22;48368;53.406;6.214;2023-03-25T11:20:45;11.40;99.90
62339;DHT22;48368;53.406;6.214;2023-03-25T11:23:20;11.50;99.90
62339;DHT22;48368;53.406;6.214;2023-03-25T11:25:47;11.50;99.90
62339;DHT22;48368;53.406;6.214;2023-03-25T11:28:17;11.40;99.90
62339;DHT22;48368;53.406;6.214;2023-03-25T11:31:13;11.40;99.90
62339;DHT22;48368;53.406;6.214;2023-03-25T11:33:41;11.30;99.90
62339;DHT22;48368;53.406;6.214;2023-03-25T11:38:45;11.30;99.90
62339;DHT22;48368;53.406;6.214;2023-03-25T11:41:14;11.30;99.90
62339;DHT22;48368;53.406;6.214;2023-03-25T11:43:40;11.30;99.90
62339;DHT22;48368;53.406;6.214;2023-03-25T11:46:09;11.30;99.90
62339;DHT22;48368;53.406;6.214;2023-03-25T11:48:37;11.40;99.90
62339;DHT22;48368;53.406;6.214;2023-03-25T11:51:11;11.40;99.90
62339;DHT22;48368;53.406;6.214;2023-03-25T11:53:50;11.40;99.90
62339;DHT22;48368;53.406;6.214;2023-03-25T11:56:26;11.40;99.90
62339;DHT22;48368;53.406;6.214;2023-03-25T11:58:57;11.40;99.90
62339;DHT22;48368;53.406;6.214;2023-03-25T12:01:29;11.40;99.90
62339;DHT22;48368;53.406;6.214;2023-03-25T12:04:22;11.40;99.90
62339;DHT22;48368;53.406;6.214;2023-03-25T12:07:00;11.50;99.90
62339;DHT22;48368;53.406;6.214;2023-03-25T12:09:31;11.50;99.90
62339;DHT22;48368;53.406;6.214;2023-03-25T12:20:36;11.60;99.90
62339;DHT22;48368;53.406;6.214;2023-03-25T12:23:30;11.60;99.90
62339;DHT22;48368;53.406;6.214;2023-03-25T12:26:12;11.60;99.90
62339;DHT22;48368;53.406;6.214;2023-03-25T12:42:20;11.40;99.90
62339;DHT22;48368;53.406;6.214;2023-03-25T12:50:29;11.30;99.90
62339;DHT22;48368;53.406;6.214;2023-03-25T12:56:39;11.00;99.90
62339;DHT22;48368;53.406;6.214;2023-03-25T13:05:09;10.50;99.90
62339;DHT22;48368;53.406;6.214;2023-03-25T13:07:44;10.30;99.90
62339;DHT22;48368;53.406;6.214;2023-03-25T13:10:21;10.10;99.90
62339;DHT22;48368;53.406;6.214;2023-03-25T13:12:52;10.20;99.90
62339;DHT22;48368;53.406;6.214;2023-03-25T13:18:17;10.10;99.90
62339;DHT22;48368;53.406;6.214;2023-03-25T13:20:50;9.90;99.90
62339;DHT22;48368;53.406;6.214;2023-03-25T13:23:20;9.90;99.90
62339;DHT22;48368;53.406;6.214;2023-03-25T13:25:58;10.00;99.90
62339;DHT22;48368;53.406;6.214;2023-03-25T13:28:36;10.00;99.90
62339;DHT22;48368;53.406;6.214;2023-03-25T13:31:11;9.90;99.90
62339;DHT22;48368;53.406;6.214;2023-03-25T13:33:43;9.90;99.90
62339;DHT22;48368;53.406;6.214;2023-03-25T13:36:25;9.90;99.90
62339;DHT22;48368;53.406;6.214;2023-03-25T13:38:55;9.90;99.90
62339;DHT22;48368;53.406;6.214;2023-03-25T13:41:32;9.90;99.90
62339;DHT22;48368;53.406;6.214;2023-03-25T13:44:18;9.80;99.90
62339;DHT22;48368;53.406;6.214;2023-03-25T13:46:51;9.70;99.90
62339;DHT22;48368;53.406;6.214;2023-03-25T13:49:47;9.70;99.90
62339;DHT22;48368;53.406;6.214;2023-03-25T13:52:15;9.70;99.90
62339;DHT22;48368;53.406;6.214;2023-03-25T13:54:56;9.70;99.90
62339;DHT22;48368;53.406;6.214;2023-03-25T13:57:27;9.90;99.90
62339;DHT22;48368;53.406;6.214;2023-03-25T14:00:20;10.00;99.90
62339;DHT22;48368;53.406;6.214;2023-03-25T14:03:11;10.00;99.90
62339;DHT22;48368;53.406;6.214;2023-03-25T14:09:09;9.80;99.90
62339;DHT22;48368;53.406;6.214;2023-03-25T14:14:34;9.60;99.90
62339;DHT22;48368;53.406;6.214;2023-03-25T14:17:03;9.70;99.90
62339;DHT22;48368;53.406;6.214;2023-03-25T14:19:35;9.60;99.90
62339;DHT22;48368;53.406;6.214;2023-03-25T14:22:15;9.70;99.90
62339;DHT22;48368;53.406;6.214;2023-03-25T14:24:43;9.60;99.90
62339;DHT22;48368;53.406;6.214;2023-03-25T14:27:24;9.60;99.90
62339;DHT22;48368;53.406;6.214;2023-03-25T14:29:58;9.50;99.90
62339;DHT22;48368;53.406;6.214;2023-03-25T14:32:29;9.60;99.90
62339;DHT22;48368;53.406;6.214;2023-03-25T14:43:34;9.80;99.90
62339;DHT22;48368;53.406;6.214;2023-03-25T14:46:20;9.80;99.90
62339;DHT22;48368;53.406;6.214;2023-03-25T14:54:00;9.80;99.90
62339;DHT22;48368;53.406;6.214;2023-03-25T14:56:34;9.70;99.90
62339;DHT22;48368;53.406;6.214;2023-03-25T14:59:11;9.70;99.90
62339;DHT22;48368;53.406;6.214;2023-03-25T15:01:40;9.60;99.90
62339;DHT22;48368;53.406;6.214;2023-03-25T15:04:35;9.50;99.90
62339;DHT22;48368;53.406;6.214;2023-03-25T15:07:07;9.60;99.90
62339;DHT22;48368;53.406;6.214;2023-03-25T15:09:48;9.50;99.90
62339;DHT22;48368;53.406;6.214;2023-03-25T15:12:18;9.50;99.90
62339;DHT22;48368;53.406;6.214;2023-03-25T15:14:48;9.60;99.90
62339;DHT22;48368;53.406;6.214;2023-03-25T15:20:12;9.50;99.90
62339;DHT22;48368;53.406;6.214;2023-03-25T15:22:40;9.50;99.90
62339;DHT22;48368;53.406;6.214;2023-03-25T15:25:15;9.40;99.90
62339;DHT22;48368;53.406;6.214;2023-03-25T15:28:23;9.40;99.90
62339;DHT22;48368;53.406;6.214;2023-03-25T15:40:13;9.40;99.90
62339;DHT22;48368;53.406;6.214;2023-03-25T15:43:06;9.40;99.90
62339;DHT22;48368;53.406;6.214;2023-03-25T15:51:01;9.50;99.90
62339;DHT22;48368;53.406;6.214;2023-03-25T15:56:24;9.40;99.90
62339;DHT22;48368;53.406;6.214;2023-03-25T15:59:27;9.50;99.90
62339;DHT22;48368;53.406;6.214;2023-03-25T16:01:50;9.40;99.90
62339;DHT22;48368;53.406;6.214;2023-03-25T16:04:39;9.40;99.90
62339;DHT22;48368;53.406;6.214;2023-03-25T16:07:10;9.40;99.90
62339;DHT22;48368;53.406;6.214;2023-03-25T16:09:39;9.40;99.90
62339;DHT22;48368;53.406;6.214;2023-03-25T16:12:08;9.40;99.90
62339;DHT22;48368;53.406;6.214;2023-03-25T16:14:34;9.40;99.90
62339;DHT22;48368;53.406;6.214;2023-03-25T16:17:05;9.30;99.90
62339;DHT22;48368;53.406;6.214;2023-03-25T16:22:19;9.30;99.90
62339;DHT22;48368;53.406;6.214;2023-03-25T16:24:47;9.30;99.90
62339;DHT22;48368;53.406;6.214;2023-03-25T16:27:24;9.30;99.90
62339;DHT22;48368;53.406;6.214;2023-03-25T16:29:52;9.20;99.90
62339;DHT22;48368;53.406;6.214;2023-03-25T16:32:23;9.20;99.90
62339;DHT22;48368;53.406;6.214;2023-03-25T16:34:49;9.20;99.90
62339;DHT22;48368;53.406;6.214;2023-03-25T16:37:19;9.20;99.90
62339;DHT22;48368;53.406;6.214;2023-03-25T16:39:55;9.20;99.90
62339;DHT22;48368;53.406;6.214;2023-03-25T16:42:31;9.20;99.90
62339;DHT22;48368;53.406;6.214;2023-03-25T16:44:59;9.20;99.90
62339;DHT22;48368;53.406;6.214;2023-03-25T16:47:26;9.20;99.90
62339;DHT22;48368;53.406;6.214;2023-03-25T16:49:54;9.10;99.90
62339;DHT22;48368;53.406;6.214;2023-03-25T16:52:32;9.20;99.90
62339;DHT22;48368;53.406;6.214;2023-03-25T16:57:28;9.10;99.90
62339;DHT22;48368;53.406;6.214;2023-03-25T17:02:43;9.10;99.90
62339;DHT22;48368;53.406;6.214;2023-03-25T17:07:49;9.00;99.90
62339;DHT22;48368;53.406;6.214;2023-03-25T17:10:24;9.00;99.90
62339;DHT22;48368;53.406;6.214;2023-03-25T17:13:09;9.00;99.90
62339;DHT22;48368;53.406;6.214;2023-03-25T17:15:38;9.00;99.90
62339;DHT22;48368;53.406;6.214;2023-03-25T17:18:12;8.90;99.90
62339;DHT22;48368;53.406;6.214;2023-03-25T17:20:40;9.00;99.90
62339;DHT22;48368;53.406;6.214;2023-03-25T17:23:17;9.00;99.90
62339;DHT22;48368;53.406;6.214;2023-03-25T17:25:59;9.00;99.90
62339;DHT22;48368;53.406;6.214;2023-03-25T17:28:31;9.00;99.90
62339;DHT22;48368;53.406;6.214;2023-03-25T17:30:57;8.90;99.90
62339;DHT22;48368;53.406;6.214;2023-03-25T17:33:34;8.80;99.90
62339;DHT22;48368;53.406;6.214;2023-03-25T17:36:08;8.80;99.90
62339;DHT22;48368;53.406;6.214;2023-03-25T17:38:37;8.80;99.90
62339;DHT22;48368;53.406;6.214;2023-03-25T17:41:08;8.80;99.90
62339;DHT22;48368;53.406;6.214;2023-03-25T17:43:51;8.80;99.90
62339;DHT22;48368;53.406;6.214;2023-03-25T17:46:27;8.80;99.90
62339;DHT22;48368;53.406;6.214;2023-03-25T17:48:53;8.80;99.90
62339;DHT22;48368;53.406;6.214;2023-03-25T17:51:22;8.80;99.90
62339;DHT22;48368;53.406;6.214;2023-03-25T17:53:48;8.70;99.90
62339;DHT22;48368;53.406;6.214;2023-03-25T17:56:18;8.70;99.90
62339;DHT22;48368;53.406;6.214;2023-03-25T17:58:45;8.70;99.90
62339;DHT22;48368;53.406;6.214;2023-03-25T18:01:12;8.60;99.90
62339;DHT22;48368;53.406;6.214;2023-03-25T18:03:38;8.70;99.90
62339;DHT22;48368;53.406;6.214;2023-03-25T18:06:04;8.60;99.90
62339;DHT22;48368;53.406;6.214;2023-03-25T18:08:30;8.60;99.90
62339;DHT22;48368;53.406;6.214;2023-03-25T18:10:56;8.60;99.90
62339;DHT22;48368;53.406;6.214;2023-03-25T18:13:23;8.60;99.90
62339;DHT22;48368;53.406;6.214;2023-03-25T18:15:51;8.60;99.90
62339;DHT22;48368;53.406;6.214;2023-03-25T18:18:22;8.70;99.90
62339;DHT22;48368;53.406;6.214;2023-03-25T18:20:53;8.60;99.90
62339;DHT22;48368;53.406;6.214;2023-03-25T18:23:20;8.60;99.90
62339;DHT22;48368;53.406;6.214;2023-03-25T18:25:46;8.60;99.90
62339;DHT22;48368;53.406;6.214;2023-03-25T18:28:14;8.50;99.90
62339;DHT22;48368;53.406;6.214;2023-03-25T18:30:54;8.50;99.90
62339;DHT22;48368;53.406;6.214;2023-03-25T18:33:20;8.60;99.90
62339;DHT22;48368;53.406;6.214;2023-03-25T18:35:46;8.50;99.90